CCA925 ZGHA-ZGGG
Flight info
| Callsign | CCA925 |
|---|---|
| Flight time | N/A |
| Altitude | 31100 |
| Route | UBM9X UBMOG W615 IDAXI R473 BEMAG/K0806S0920 V5 ENVIP ENVIP9 |
| Aircraft | B738/M-SDE2E3FGHIRWXY/LB1 |
Departure
| Time | 2026-04-29 06:38 |
|---|---|
| Airport | Changsha Huanghua International Airport (ZGHA) |
Arrival
| Time | N/A |
|---|---|
| Airport | Guangzhou Baiyun International Airport (ZGGG) |
| Time | Latitude | Longitude | Altitude | Speed | Heading |
|---|---|---|---|---|---|
| 2026-04-29 06:14 | 28.19240 | 113.21564 | 212 ft | 0 kts | 311° |
| 2026-04-29 06:28 | 28.19238 | 113.21566 | 211 ft | 2 kts | 311° |
| 2026-04-29 06:29 | 28.19227 | 113.21580 | 211 ft | 2 kts | 313° |
| 2026-04-29 06:29 | 28.19216 | 113.21594 | 215 ft | 2 kts | 313° |
| 2026-04-29 06:29 | 28.19205 | 113.21608 | 216 ft | 2 kts | 314° |
| 2026-04-29 06:29 | 28.19193 | 113.21621 | 215 ft | 2 kts | 315° |
| 2026-04-29 06:30 | 28.19182 | 113.21634 | 215 ft | 2 kts | 315° |
| 2026-04-29 06:30 | 28.19180 | 113.21662 | 212 ft | 2 kts | 182° |
| 2026-04-29 06:30 | 28.19196 | 113.21661 | 218 ft | 2 kts | 176° |
| 2026-04-29 06:31 | 28.19207 | 113.21661 | 213 ft | 1 kts | 180° |
| 2026-04-29 06:33 | 28.19187 | 113.21660 | 216 ft | 5 kts | 180° |
| 2026-04-29 06:33 | 28.19132 | 113.21662 | 211 ft | 10 kts | 174° |
| 2026-04-29 06:33 | 28.19045 | 113.21669 | 211 ft | 15 kts | 176° |
| 2026-04-29 06:33 | 28.18928 | 113.21680 | 211 ft | 18 kts | 168° |
| 2026-04-29 06:34 | 28.18879 | 113.21766 | 213 ft | 14 kts | 110° |
| 2026-04-29 06:34 | 28.18829 | 113.21797 | 211 ft | 8 kts | 187° |
| 2026-04-29 06:34 | 28.18766 | 113.21798 | 215 ft | 11 kts | 178° |
| 2026-04-29 06:34 | 28.18678 | 113.21802 | 215 ft | 15 kts | 178° |
| 2026-04-29 06:35 | 28.18563 | 113.21810 | 215 ft | 18 kts | 176° |
| 2026-04-29 06:35 | 28.18424 | 113.21820 | 211 ft | 22 kts | 176° |
| 2026-04-29 06:35 | 28.18264 | 113.21831 | 211 ft | 24 kts | 176° |
| 2026-04-29 06:35 | 28.18102 | 113.21841 | 216 ft | 22 kts | 178° |
| 2026-04-29 06:36 | 28.17942 | 113.21849 | 211 ft | 24 kts | 178° |
| 2026-04-29 06:36 | 28.17800 | 113.21858 | 212 ft | 20 kts | 172° |
| 2026-04-29 06:36 | 28.17743 | 113.21946 | 212 ft | 0 kts | 85° |
| 2026-04-29 06:37 | 28.17744 | 113.21957 | 215 ft | 4 kts | 85° |
| 2026-04-29 06:37 | 28.17748 | 113.22009 | 211 ft | 9 kts | 85° |
| 2026-04-29 06:37 | 28.17771 | 113.22048 | 215 ft | 5 kts | 17° |
| 2026-04-29 06:37 | 28.17817 | 113.22047 | 211 ft | 9 kts | 358° |
| 2026-04-29 06:38 | 28.18082 | 113.22033 | 214 ft | 77 kts | 357° |
| 2026-04-29 06:38 | 28.18848 | 113.21986 | 213 ft | 141 kts | 356° |
| 2026-04-29 06:38 | 28.20010 | 113.21891 | 226 ft | 192 kts | 356° |
| 2026-04-29 06:38 | 28.21389 | 113.21808 | 846 ft | 195 kts | 356° |
| 2026-04-29 06:39 | 28.22716 | 113.21730 | 1863 ft | 186 kts | 358° |
| 2026-04-29 06:39 | 28.24076 | 113.21674 | 2386 ft | 210 kts | 356° |
| 2026-04-29 06:39 | 28.25569 | 113.21561 | 2987 ft | 214 kts | 354° |
| 2026-04-29 06:39 | 28.27060 | 113.21454 | 3654 ft | 219 kts | 359° |
| 2026-04-29 06:40 | 28.28641 | 113.21475 | 4167 ft | 234 kts | 0° |
| 2026-04-29 06:40 | 28.30331 | 113.21424 | 4633 ft | 253 kts | 355° |
| 2026-04-29 06:40 | 28.32119 | 113.21240 | 5372 ft | 260 kts | 355° |
| 2026-04-29 06:40 | 28.33913 | 113.21105 | 6394 ft | 253 kts | 355° |
| 2026-04-29 06:41 | 28.35611 | 113.20983 | 7582 ft | 240 kts | 358° |
| 2026-04-29 06:41 | 28.37240 | 113.21390 | 8275 ft | 246 kts | 31° |
| 2026-04-29 06:41 | 28.38413 | 113.22778 | 8944 ft | 248 kts | 65° |
| 2026-04-29 06:41 | 28.38828 | 113.24672 | 9638 ft | 249 kts | 84° |
| 2026-04-29 06:42 | 28.38945 | 113.26648 | 10323 ft | 253 kts | 88° |
| 2026-04-29 06:42 | 28.39013 | 113.28655 | 11000 ft | 256 kts | 88° |
| 2026-04-29 06:42 | 28.39082 | 113.30680 | 11679 ft | 258 kts | 88° |
| 2026-04-29 06:42 | 28.39159 | 113.32725 | 12348 ft | 261 kts | 88° |
| 2026-04-29 06:43 | 28.39245 | 113.34793 | 13004 ft | 263 kts | 88° |
| 2026-04-29 06:43 | 28.39338 | 113.36881 | 13644 ft | 266 kts | 87° |
| 2026-04-29 06:43 | 28.39436 | 113.38989 | 14279 ft | 269 kts | 87° |
| 2026-04-29 06:43 | 28.39536 | 113.41115 | 14927 ft | 270 kts | 87° |
| 2026-04-29 06:44 | 28.39628 | 113.43255 | 15547 ft | 273 kts | 91° |
| 2026-04-29 06:44 | 28.39210 | 113.45343 | 16082 ft | 275 kts | 120° |
| 2026-04-29 06:44 | 28.37952 | 113.46960 | 16560 ft | 280 kts | 148° |
| 2026-04-29 06:44 | 28.36082 | 113.47726 | 16728 ft | 297 kts | 174° |
| 2026-04-29 06:45 | 28.33955 | 113.47891 | 16896 ft | 317 kts | 178° |
| 2026-04-29 06:45 | 28.31687 | 113.47992 | 17040 ft | 337 kts | 178° |
| 2026-04-29 06:45 | 28.29275 | 113.48091 | 17181 ft | 356 kts | 178° |
| 2026-04-29 06:45 | 28.26740 | 113.48209 | 17324 ft | 373 kts | 178° |
| 2026-04-29 06:46 | 28.24108 | 113.48346 | 17705 ft | 382 kts | 177° |
| 2026-04-29 06:46 | 28.21436 | 113.48496 | 18299 ft | 385 kts | 177° |
| 2026-04-29 06:46 | 28.18754 | 113.48650 | 18916 ft | 387 kts | 177° |
| 2026-04-29 06:46 | 28.16067 | 113.48950 | 19434 ft | 391 kts | 166° |
| 2026-04-29 06:47 | 28.13570 | 113.50187 | 19929 ft | 396 kts | 145° |
| 2026-04-29 06:47 | 28.11554 | 113.52308 | 20472 ft | 399 kts | 127° |
| 2026-04-29 06:47 | 28.10191 | 113.55047 | 20990 ft | 402 kts | 115° |
| 2026-04-29 06:47 | 28.09069 | 113.57912 | 21467 ft | 405 kts | 114° |
| 2026-04-29 06:48 | 28.07937 | 113.60849 | 21922 ft | 409 kts | 114° |
| 2026-04-29 06:48 | 28.06771 | 113.63799 | 22380 ft | 412 kts | 115° |
| 2026-04-29 06:48 | 28.05240 | 113.66540 | 22793 ft | 414 kts | 134° |
| 2026-04-29 06:48 | 28.02976 | 113.68528 | 23345 ft | 412 kts | 153° |
| 2026-04-29 06:49 | 28.00305 | 113.69630 | 24008 ft | 408 kts | 169° |
| 2026-04-29 06:49 | 27.97494 | 113.69825 | 24578 ft | 405 kts | 183° |
| 2026-04-29 06:49 | 27.94681 | 113.69591 | 25105 ft | 406 kts | 185° |
| 2026-04-29 06:49 | 27.91867 | 113.69294 | 25591 ft | 406 kts | 186° |
| 2026-04-29 06:50 | 27.89057 | 113.68991 | 26121 ft | 405 kts | 185° |
| 2026-04-29 06:50 | 27.86259 | 113.68704 | 26664 ft | 403 kts | 185° |
| 2026-04-29 06:50 | 27.83470 | 113.68436 | 27193 ft | 402 kts | 185° |
| 2026-04-29 06:51 | 27.72075 | 113.67414 | 27501 ft | 402 kts | 185° |
| 2026-04-29 06:51 | 27.69282 | 113.67167 | 27509 ft | 402 kts | 185° |
| 2026-04-29 06:52 | 27.66483 | 113.66918 | 27511 ft | 402 kts | 185° |
| 2026-04-29 06:52 | 27.63683 | 113.66690 | 27504 ft | 403 kts | 182° |
| 2026-04-29 06:52 | 27.60918 | 113.66676 | 27502 ft | 403 kts | 179° |
| 2026-04-29 06:52 | 27.58113 | 113.66786 | 27504 ft | 403 kts | 178° |
| 2026-04-29 06:53 | 27.55308 | 113.66917 | 27506 ft | 403 kts | 178° |
| 2026-04-29 06:53 | 27.52503 | 113.67028 | 27499 ft | 403 kts | 178° |
| 2026-04-29 06:53 | 27.49697 | 113.67115 | 27501 ft | 403 kts | 179° |
| 2026-04-29 06:53 | 27.46895 | 113.67189 | 27498 ft | 403 kts | 179° |
| 2026-04-29 06:54 | 27.44093 | 113.67322 | 27495 ft | 403 kts | 175° |
| 2026-04-29 06:54 | 27.41316 | 113.67710 | 27506 ft | 402 kts | 172° |
| 2026-04-29 06:54 | 27.38548 | 113.68208 | 27498 ft | 402 kts | 171° |
| 2026-04-29 06:54 | 27.35790 | 113.68716 | 27501 ft | 402 kts | 171° |
| 2026-04-29 06:55 | 27.33026 | 113.69204 | 27501 ft | 402 kts | 172° |
| 2026-04-29 06:55 | 27.30266 | 113.69666 | 27505 ft | 402 kts | 172° |
| 2026-04-29 06:55 | 27.27499 | 113.70113 | 27499 ft | 402 kts | 172° |
| 2026-04-29 06:55 | 27.24730 | 113.70556 | 27500 ft | 401 kts | 172° |
| 2026-04-29 06:56 | 27.21964 | 113.70998 | 27502 ft | 401 kts | 172° |
| 2026-04-29 06:56 | 27.19198 | 113.71440 | 27503 ft | 401 kts | 172° |
| 2026-04-29 06:56 | 27.16434 | 113.71880 | 27499 ft | 401 kts | 172° |
| 2026-04-29 06:56 | 27.13666 | 113.72322 | 27502 ft | 401 kts | 172° |
| 2026-04-29 06:57 | 27.10904 | 113.72762 | 27501 ft | 402 kts | 172° |
| 2026-04-29 06:57 | 27.08135 | 113.73204 | 27507 ft | 402 kts | 172° |
| 2026-04-29 06:57 | 27.05366 | 113.73645 | 27502 ft | 402 kts | 172° |
| 2026-04-29 06:57 | 27.02585 | 113.74088 | 27500 ft | 402 kts | 172° |
| 2026-04-29 06:58 | 26.99851 | 113.74524 | 27505 ft | 402 kts | 172° |
| 2026-04-29 06:58 | 26.97077 | 113.74966 | 27505 ft | 402 kts | 172° |
| 2026-04-29 06:58 | 26.94305 | 113.75407 | 27499 ft | 402 kts | 172° |
| 2026-04-29 06:58 | 26.91534 | 113.75847 | 27497 ft | 402 kts | 172° |
| 2026-04-29 06:59 | 26.88761 | 113.76288 | 27502 ft | 402 kts | 172° |
| 2026-04-29 06:59 | 26.85993 | 113.76728 | 27501 ft | 402 kts | 172° |
| 2026-04-29 06:59 | 26.83225 | 113.77168 | 27500 ft | 402 kts | 172° |
| 2026-04-29 06:59 | 26.80456 | 113.77607 | 27502 ft | 402 kts | 172° |
| 2026-04-29 07:00 | 26.77688 | 113.78046 | 27500 ft | 402 kts | 172° |
| 2026-04-29 07:00 | 26.74922 | 113.78487 | 27500 ft | 402 kts | 172° |
| 2026-04-29 07:00 | 26.72187 | 113.79120 | 27501 ft | 401 kts | 165° |
| 2026-04-29 07:00 | 26.69493 | 113.79960 | 27508 ft | 401 kts | 164° |
| 2026-04-29 07:01 | 26.66816 | 113.80843 | 27503 ft | 401 kts | 163° |
| 2026-04-29 07:01 | 26.64134 | 113.81727 | 27501 ft | 402 kts | 164° |
| 2026-04-29 07:01 | 26.61485 | 113.82585 | 27500 ft | 402 kts | 164° |
| 2026-04-29 07:01 | 26.58799 | 113.83439 | 27501 ft | 401 kts | 165° |
| 2026-04-29 07:02 | 26.56111 | 113.84285 | 27503 ft | 401 kts | 165° |
| 2026-04-29 07:02 | 26.53419 | 113.85129 | 27503 ft | 402 kts | 165° |
| 2026-04-29 07:02 | 26.50727 | 113.85971 | 27500 ft | 402 kts | 165° |
| 2026-04-29 07:02 | 26.48028 | 113.86798 | 27502 ft | 402 kts | 165° |
| 2026-04-29 07:03 | 26.45321 | 113.87587 | 27507 ft | 402 kts | 166° |
| 2026-04-29 07:03 | 26.42612 | 113.88362 | 27501 ft | 402 kts | 166° |
| 2026-04-29 07:03 | 26.39902 | 113.89135 | 27499 ft | 402 kts | 166° |
| 2026-04-29 07:03 | 26.37194 | 113.89910 | 27502 ft | 402 kts | 166° |